createdAt,value
2019-02-03T00:01:59.592Z,1.63
2019-02-03T00:04:28.274Z,1.59
2019-02-03T00:07:03.343Z,1.61
2019-02-03T00:09:27.130Z,1.42
2019-02-03T00:11:55.788Z,1.38
2019-02-03T00:14:25.441Z,1.44
2019-02-03T00:16:54.193Z,1.54
2019-02-03T00:19:22.752Z,1.60
2019-02-03T00:21:51.668Z,1.61
2019-02-03T00:24:20.227Z,1.50
2019-02-03T00:26:48.837Z,1.59
2019-02-03T00:29:17.392Z,1.99
2019-02-03T00:31:46.401Z,1.76
2019-02-03T00:34:14.964Z,1.67
2019-02-03T00:36:43.867Z,1.73
2019-02-03T00:39:12.619Z,1.93
2019-02-03T00:41:41.249Z,1.73
2019-02-03T00:44:09.853Z,1.75
2019-02-03T00:46:38.524Z,1.68
2019-02-03T00:49:07.515Z,1.82
2019-02-03T00:51:36.202Z,1.64
2019-02-03T00:54:06.015Z,1.83
2019-02-03T00:56:34.747Z,1.91
2019-02-03T00:59:03.635Z,1.75
2019-02-03T01:01:32.412Z,1.66
2019-02-03T01:04:00.945Z,1.60
2019-02-03T01:06:29.499Z,1.66
2019-02-03T01:08:58.074Z,1.70
2019-02-03T01:11:26.678Z,1.57
2019-02-03T01:13:55.602Z,1.48
2019-02-03T01:16:24.299Z,1.47
2019-02-03T01:18:53.798Z,1.50
2019-02-03T01:21:22.784Z,1.64
2019-02-03T01:23:51.297Z,1.63
2019-02-03T01:26:19.886Z,1.73
2019-02-03T01:28:48.427Z,1.83
2019-02-03T01:31:17.031Z,1.74
2019-02-03T01:33:45.622Z,1.80
2019-02-03T01:36:14.561Z,1.81
2019-02-03T01:38:43.096Z,1.78
2019-02-03T01:41:11.652Z,1.81
2019-02-03T01:43:40.167Z,1.89
2019-02-03T01:46:08.755Z,1.96
2019-02-03T01:48:39.550Z,1.85
2019-02-03T01:51:08.201Z,1.79
2019-02-03T01:53:36.749Z,1.93
2019-02-03T01:56:05.702Z,2.00
2019-02-03T01:58:34.584Z,1.79
2019-02-03T02:01:03.259Z,1.87
2019-02-03T02:03:31.777Z,1.86
2019-02-03T02:06:00.425Z,1.94
2019-02-03T02:08:28.973Z,1.98
2019-02-03T02:10:57.604Z,2.02
2019-02-03T02:13:26.462Z,1.91
2019-02-03T02:15:55.136Z,1.87
2019-02-03T02:18:23.754Z,2.04
2019-02-03T02:20:52.312Z,1.94
2019-02-03T02:23:21.237Z,1.90
2019-02-03T02:25:50.182Z,1.98
2019-02-03T02:28:18.709Z,1.91
2019-02-03T02:30:47.400Z,1.91
2019-02-03T02:33:16.004Z,1.91
2019-02-03T02:35:44.636Z,2.01
2019-02-03T02:38:13.491Z,1.96
2019-02-03T02:40:42.280Z,2.07
2019-02-03T02:43:10.797Z,2.09
2019-02-03T02:45:39.356Z,1.99
2019-02-03T02:48:08.012Z,1.96
2019-02-03T02:50:41.804Z,1.94
2019-02-03T02:53:10.446Z,2.15
2019-02-03T02:55:39.016Z,1.97
2019-02-03T02:58:07.616Z,1.97
2019-02-03T03:00:36.144Z,1.89
2019-02-03T03:03:05.025Z,1.91
2019-02-03T03:05:33.576Z,1.97
2019-02-03T03:08:02.564Z,1.96
2019-02-03T03:10:31.090Z,1.97
2019-02-03T03:13:00.042Z,1.89
2019-02-03T03:15:28.657Z,1.97
2019-02-03T03:17:57.360Z,1.99
2019-02-03T03:20:25.961Z,1.73
2019-02-03T03:22:55.133Z,1.94
2019-02-03T03:25:23.751Z,1.98
2019-02-03T03:27:52.383Z,2.08
2019-02-03T03:30:23.736Z,2.04
2019-02-03T03:32:52.457Z,1.98
2019-02-03T03:35:21.099Z,1.84
2019-02-03T03:37:49.688Z,2.04
2019-02-03T03:40:21.045Z,2.07
2019-02-03T03:42:49.729Z,2.10
2019-02-03T03:45:18.319Z,2.10
2019-02-03T03:47:46.897Z,2.01
2019-02-03T03:50:16.636Z,2.04
2019-02-03T03:52:45.271Z,1.91
2019-02-03T03:55:14.294Z,1.90
2019-02-03T03:57:43.007Z,1.88
2019-02-03T04:00:23.046Z,2.03
2019-02-03T04:02:52.442Z,1.96
2019-02-03T04:05:21.212Z,2.13
2019-02-03T04:07:50.309Z,2.02
2019-02-03T04:10:23.741Z,1.82
2019-02-03T04:12:52.381Z,2.04
2019-02-03T04:15:21.935Z,2.12
2019-02-03T04:17:51.062Z,2.19
2019-02-03T04:20:30.349Z,1.88
2019-02-03T04:22:59.369Z,2.05
2019-02-03T04:25:27.966Z,2.04
2019-02-03T04:27:56.991Z,2.17
2019-02-03T04:30:26.951Z,1.97
2019-02-03T04:32:55.699Z,2.12
2019-02-03T04:35:24.271Z,2.24
2019-02-03T04:37:52.856Z,2.20
2019-02-03T04:40:22.743Z,2.14
2019-02-03T04:42:51.386Z,2.04
2019-02-03T04:45:22.423Z,1.99
2019-02-03T04:47:50.433Z,2.13
2019-02-03T04:50:20.894Z,2.02
2019-02-03T04:52:49.562Z,1.99
2019-02-03T04:55:20.516Z,2.06
2019-02-03T04:57:49.218Z,2.13
2019-02-03T05:00:20.644Z,2.03
2019-02-03T05:02:49.268Z,1.86
2019-02-03T05:05:18.280Z,2.03
2019-02-03T05:07:47.235Z,2.07
2019-02-03T05:10:16.505Z,2.14
2019-02-03T05:12:45.135Z,1.94
2019-02-03T05:15:16.415Z,1.97
2019-02-03T05:17:45.135Z,2.00
2019-02-03T05:20:16.400Z,1.96
2019-02-03T05:22:45.421Z,2.02
2019-02-03T05:25:14.883Z,2.00
2019-02-03T05:27:44.654Z,2.03
2019-02-03T05:30:24.913Z,1.97
2019-02-03T05:32:53.665Z,1.96
2019-02-03T05:35:22.451Z,2.17
2019-02-03T05:37:51.052Z,2.00
2019-02-03T05:40:20.016Z,2.11
2019-02-03T05:42:48.595Z,2.01
2019-02-03T05:45:19.277Z,2.10
2019-02-03T05:47:50.055Z,2.09
2019-02-03T05:50:20.198Z,2.04
2019-02-03T05:52:49.199Z,1.96
2019-02-03T05:55:18.923Z,2.26
2019-02-03T05:57:47.753Z,2.12
2019-02-03T06:00:23.424Z,2.08
2019-02-03T06:02:52.291Z,2.09
2019-02-03T06:05:20.824Z,1.98
2019-02-03T06:07:49.725Z,2.04
2019-02-03T06:10:19.007Z,1.84
2019-02-03T06:12:47.904Z,1.93
2019-02-03T06:15:17.117Z,1.96
2019-02-03T06:17:45.680Z,2.00
2019-02-03T06:20:19.500Z,1.99
2019-02-03T06:22:48.626Z,2.03
2019-02-03T06:25:17.777Z,1.98
2019-02-03T06:27:46.654Z,2.07
2019-02-03T06:30:27.137Z,2.00
2019-02-03T06:32:55.725Z,2.00
2019-02-03T06:35:24.341Z,1.92
2019-02-03T06:37:53.966Z,2.00
2019-02-03T06:40:22.978Z,1.86
2019-02-03T06:42:51.540Z,2.04
2019-02-03T06:45:27.526Z,1.99
2019-02-03T06:47:59.215Z,2.12
2019-02-03T06:50:27.554Z,2.03
2019-02-03T06:52:56.488Z,1.96
2019-02-03T06:55:25.043Z,2.05
2019-02-03T06:57:54.047Z,1.90
2019-02-03T07:00:22.574Z,1.95
2019-02-03T07:02:51.142Z,1.88
2019-02-03T07:05:19.654Z,1.99
2019-02-03T07:07:48.599Z,1.94
2019-02-03T07:10:17.134Z,1.86
2019-02-03T07:12:45.674Z,1.98
2019-02-03T07:15:14.400Z,2.08
2019-02-03T07:17:42.984Z,2.06
2019-02-03T07:20:19.050Z,1.94
2019-02-03T07:22:47.609Z,1.99
2019-02-03T07:25:16.180Z,1.98
2019-02-03T07:27:44.782Z,2.02
2019-02-03T07:30:19.344Z,2.17
2019-02-03T07:32:47.970Z,2.20
2019-02-03T07:35:16.876Z,1.87
2019-02-03T07:37:46.010Z,1.79
2019-02-03T07:40:16.931Z,2.07
2019-02-03T07:42:45.521Z,2.14
2019-02-03T07:45:14.251Z,2.21
2019-02-03T07:47:43.432Z,2.17
2019-02-03T07:50:14.700Z,2.16
2019-02-03T07:52:45.394Z,2.20
2019-02-03T07:55:15.191Z,2.06
2019-02-03T07:57:43.911Z,2.02
2019-02-03T08:00:15.140Z,2.09
2019-02-03T08:02:43.689Z,1.89
2019-02-03T08:05:13.057Z,2.07
2019-02-03T08:07:41.663Z,1.93
2019-02-03T08:10:24.515Z,2.04
2019-02-03T08:12:45.633Z,2.07
2019-02-03T08:15:16.499Z,2.02
2019-02-03T08:17:45.117Z,2.20
2019-02-03T08:20:19.095Z,2.22
2019-02-03T08:22:47.672Z,2.17
2019-02-03T08:25:17.963Z,2.20
2019-02-03T08:27:46.918Z,2.05
2019-02-03T08:30:18.951Z,2.05
2019-02-03T08:32:47.679Z,2.17
2019-02-03T08:35:16.214Z,2.10
2019-02-03T08:37:44.958Z,2.26
2019-02-03T08:40:36.646Z,2.12
2019-02-03T08:42:56.177Z,2.09
2019-02-03T08:45:25.854Z,2.09
2019-02-03T08:47:54.402Z,2.10
2019-02-03T08:50:24.227Z,2.04
2019-02-03T08:52:52.977Z,2.08
2019-02-03T08:55:21.631Z,1.90
2019-02-03T08:57:50.243Z,1.99
2019-02-03T09:00:24.279Z,1.94
2019-02-03T09:02:52.890Z,2.00
2019-02-03T09:05:21.515Z,2.03
2019-02-03T09:07:51.239Z,1.94
2019-02-03T09:10:22.381Z,1.96
2019-02-03T09:12:51.765Z,2.05
2019-02-03T09:15:29.181Z,1.92
2019-02-03T09:17:57.711Z,2.07
2019-02-03T09:20:36.102Z,1.94
2019-02-03T09:23:05.444Z,2.14
2019-02-03T09:25:33.988Z,2.07
2019-02-03T09:28:02.592Z,2.13
2019-02-03T09:30:33.782Z,2.27
2019-02-03T09:33:03.033Z,2.35
2019-02-03T09:35:31.655Z,2.22
2019-02-03T09:38:00.424Z,2.29
2019-02-03T09:40:31.671Z,2.30
2019-02-03T09:43:03.465Z,2.28
2019-02-03T09:45:32.474Z,2.39
2019-02-03T09:48:01.311Z,2.05
2019-02-03T09:50:31.377Z,2.26
2019-02-03T09:53:01.601Z,2.30
2019-02-03T09:55:30.945Z,2.31
2019-02-03T09:58:00.715Z,2.27
2019-02-03T10:00:35.351Z,2.31
2019-02-03T10:03:06.036Z,2.38
2019-02-03T10:05:37.142Z,2.21
2019-02-03T10:08:05.679Z,2.31
2019-02-03T10:10:36.982Z,2.39
2019-02-03T10:13:06.343Z,2.17
2019-02-03T10:15:34.968Z,2.28
2019-02-03T10:18:04.274Z,2.41
2019-02-03T10:20:32.868Z,2.23
2019-02-03T10:23:01.433Z,2.39
2019-02-03T10:25:31.183Z,2.32
2019-02-03T10:27:59.889Z,2.34
2019-02-03T10:30:29.983Z,2.26
2019-02-03T10:32:59.547Z,2.38
2019-02-03T10:35:30.243Z,2.48
2019-02-03T10:37:58.930Z,2.38
2019-02-03T10:40:29.805Z,2.33
2019-02-03T10:42:59.969Z,2.46
2019-02-03T10:45:29.164Z,2.42
2019-02-03T10:47:57.982Z,2.38
2019-02-03T10:50:31.774Z,2.46
2019-02-03T10:53:03.191Z,2.38
2019-02-03T10:55:33.071Z,2.41
2019-02-03T10:58:01.674Z,2.27
2019-02-03T11:00:36.194Z,2.45
2019-02-03T11:03:05.410Z,2.46
2019-02-03T11:05:41.043Z,2.40
2019-02-03T11:08:12.480Z,2.44
2019-02-03T11:10:41.235Z,2.47
2019-02-03T11:13:09.833Z,2.44
2019-02-03T11:15:38.659Z,2.50
2019-02-03T11:18:07.314Z,2.65
2019-02-03T11:20:36.287Z,2.60
2019-02-03T11:23:05.075Z,2.56
2019-02-03T11:25:34.246Z,2.67
2019-02-03T11:28:03.343Z,2.63
2019-02-03T11:30:32.126Z,2.64
2019-02-03T11:33:06.941Z,2.69
2019-02-03T11:35:32.214Z,2.72
2019-02-03T11:38:01.260Z,2.63
2019-02-03T11:40:32.118Z,2.78
2019-02-03T11:43:01.559Z,2.65
2019-02-03T11:45:33.245Z,2.64
2019-02-03T11:48:02.312Z,2.76
2019-02-03T11:50:36.727Z,2.75
2019-02-03T11:53:07.671Z,2.73
2019-02-03T11:55:36.205Z,2.87
2019-02-03T11:58:05.087Z,2.82
2019-02-03T12:00:33.739Z,2.84
2019-02-03T12:03:03.268Z,2.72
2019-02-03T12:05:32.067Z,2.82
2019-02-03T12:08:00.613Z,2.86
2019-02-03T12:10:30.675Z,2.71
2019-02-03T12:13:00.158Z,2.72
2019-02-03T12:15:28.994Z,2.87
2019-02-03T12:17:58.913Z,2.75
2019-02-03T12:20:27.779Z,2.95
2019-02-03T12:22:56.610Z,2.89
2019-02-03T12:25:30.770Z,2.99
2019-02-03T12:28:01.053Z,2.88
2019-02-03T12:30:32.395Z,2.85
2019-02-03T12:33:01.949Z,2.72
2019-02-03T12:35:30.693Z,2.70
2019-02-03T12:37:59.504Z,2.75
2019-02-03T12:40:30.556Z,2.62
2019-02-03T12:42:59.184Z,2.60
2019-02-03T12:45:29.529Z,2.54
2019-02-03T12:47:58.289Z,2.57
2019-02-03T12:50:26.841Z,2.63
2019-02-03T12:52:55.677Z,2.39
2019-02-03T12:55:27.764Z,2.58
2019-02-03T12:57:56.516Z,2.59
2019-02-03T13:00:27.429Z,2.43
2019-02-03T13:02:56.110Z,2.47
2019-02-03T13:05:26.287Z,2.51
2019-02-03T13:07:55.944Z,2.56
2019-02-03T13:10:27.371Z,2.50
2019-02-03T13:12:56.204Z,2.75
2019-02-03T13:15:45.824Z,2.57
2019-02-03T13:18:14.905Z,2.51
2019-02-03T13:20:43.818Z,2.41
2019-02-03T13:23:12.853Z,2.63
2019-02-03T13:25:41.640Z,2.65
2019-02-03T13:28:10.449Z,2.51
2019-02-03T13:30:47.703Z,2.68
2019-02-03T13:33:16.630Z,2.61
2019-02-03T13:35:45.172Z,2.60
2019-02-03T13:38:13.791Z,2.73
2019-02-03T13:40:42.381Z,2.89
2019-02-03T13:43:11.181Z,2.79
2019-02-03T13:45:40.289Z,2.76
2019-02-03T13:48:09.820Z,2.89
2019-02-03T13:50:38.438Z,2.76
2019-02-03T13:53:07.109Z,2.83
2019-02-03T13:55:35.754Z,2.83
2019-02-03T13:58:04.608Z,2.76
2019-02-03T14:00:40.863Z,2.80
2019-02-03T14:03:09.652Z,2.54
2019-02-03T14:05:38.269Z,2.66
2019-02-03T14:08:06.945Z,2.80
2019-02-03T14:10:36.222Z,2.81
2019-02-03T14:13:06.774Z,2.84
2019-02-03T14:15:35.452Z,2.82
2019-02-03T14:18:05.597Z,2.60
2019-02-03T14:20:34.485Z,2.60
2019-02-03T14:23:03.342Z,2.65
2019-02-03T14:25:32.422Z,2.62
2019-02-03T14:28:02.165Z,2.69
2019-02-03T14:30:40.225Z,2.76
2019-02-03T14:33:05.304Z,2.58
2019-02-03T14:35:34.028Z,2.77
2019-02-03T14:38:06.185Z,2.66
2019-02-03T14:40:35.032Z,2.63
2019-02-03T14:43:03.705Z,2.51
2019-02-03T14:45:32.349Z,2.65
2019-02-03T14:48:01.064Z,2.72
2019-02-03T14:50:29.771Z,2.64
2019-02-03T14:53:04.468Z,2.67
2019-02-03T14:55:36.592Z,2.68
2019-02-03T14:58:06.073Z,2.66
2019-02-03T15:00:43.914Z,2.64
2019-02-03T15:03:18.390Z,2.54
2019-02-03T15:05:47.341Z,2.44
2019-02-03T15:08:16.227Z,2.44
2019-02-03T15:10:44.835Z,2.54
2019-02-03T15:13:15.945Z,2.55
2019-02-03T15:15:43.855Z,2.49
2019-02-03T15:18:12.700Z,2.60
2019-02-03T15:20:41.832Z,2.42
2019-02-03T15:23:10.536Z,2.56
2019-02-03T15:25:39.276Z,2.40
2019-02-03T15:28:10.691Z,2.46
2019-02-03T15:30:42.455Z,2.44
2019-02-03T15:33:11.606Z,2.48
2019-02-03T15:35:40.397Z,2.41
2019-02-03T15:38:09.500Z,2.39
2019-02-03T15:40:38.255Z,2.47
2019-02-03T15:43:07.093Z,2.41
2019-02-03T15:45:36.065Z,2.46
2019-02-03T15:48:05.321Z,2.49
2019-02-03T15:50:34.011Z,2.42
2019-02-03T15:53:02.825Z,2.37
2019-02-03T15:55:34.612Z,2.41
2019-02-03T15:58:03.611Z,2.30
2019-02-03T16:00:37.864Z,2.34
2019-02-03T16:03:08.680Z,2.35
2019-02-03T16:05:37.487Z,2.46
2019-02-03T16:08:08.198Z,2.43
2019-02-03T16:10:36.977Z,2.43
2019-02-03T16:13:06.723Z,2.30
2019-02-03T16:15:36.146Z,2.25
2019-02-03T16:18:06.150Z,2.26
2019-02-03T16:20:35.286Z,2.31
2019-02-03T16:23:04.757Z,2.23
2019-02-03T16:25:35.158Z,2.23
2019-02-03T16:28:06.255Z,2.12
2019-02-03T16:30:39.712Z,2.21
2019-02-03T16:33:11.030Z,2.23
2019-02-03T16:35:42.040Z,2.20
2019-02-03T16:38:22.472Z,2.13
2019-02-03T16:40:43.887Z,2.22
2019-02-03T16:43:12.777Z,2.11
2019-02-03T16:45:41.482Z,2.18
2019-02-03T16:48:10.186Z,2.12
2019-02-03T16:50:38.919Z,2.19
2019-02-03T16:53:08.054Z,2.22
2019-02-03T16:55:36.758Z,2.18
2019-02-03T16:58:06.287Z,2.19
2019-02-03T17:00:34.879Z,2.19
2019-02-03T17:03:04.169Z,2.14
2019-02-03T17:05:34.162Z,2.04
2019-02-03T17:08:04.273Z,2.10
2019-02-03T17:10:34.041Z,2.17
2019-02-03T17:13:02.689Z,2.07
2019-02-03T17:15:37.200Z,2.29
2019-02-03T17:18:08.722Z,2.21
2019-02-03T17:20:39.047Z,2.23
2019-02-03T17:23:07.691Z,2.26
2019-02-03T17:25:54.988Z,2.28
2019-02-03T17:28:23.601Z,2.25
2019-02-03T17:30:53.584Z,2.19
2019-02-03T17:33:22.602Z,2.18
2019-02-03T17:35:54.671Z,2.23
2019-02-03T17:38:23.080Z,2.15
2019-02-03T17:40:51.877Z,2.24
2019-02-03T17:43:20.539Z,2.10
2019-02-03T17:45:49.531Z,2.19
2019-02-03T17:48:18.419Z,2.15
2019-02-03T17:50:47.249Z,2.11
2019-02-03T17:53:16.020Z,2.09
2019-02-03T17:55:44.947Z,2.00
2019-02-03T17:58:15.069Z,2.14
2019-02-03T18:00:45.395Z,2.17
2019-02-03T18:03:15.112Z,2.27
2019-02-03T18:05:43.921Z,2.19
2019-02-03T18:08:12.510Z,2.19
2019-02-03T18:10:41.087Z,2.08
2019-02-03T18:13:09.864Z,2.18
2019-02-03T18:15:38.549Z,2.12
2019-02-03T18:18:08.853Z,2.18
2019-02-03T18:20:37.551Z,2.23
2019-02-03T18:23:06.832Z,2.16
2019-02-03T18:25:35.598Z,2.22
2019-02-03T18:28:04.640Z,2.11
2019-02-03T18:30:37.829Z,2.04
2019-02-03T18:33:07.603Z,2.04
2019-02-03T18:35:36.246Z,2.02
2019-02-03T18:38:13.625Z,2.06
2019-02-03T18:40:42.482Z,2.00
2019-02-03T18:43:11.394Z,2.10
2019-02-03T18:45:40.269Z,2.00
2019-02-03T18:48:09.223Z,1.92
2019-02-03T18:50:39.700Z,1.97
2019-02-03T18:53:08.518Z,2.00
2019-02-03T18:55:43.569Z,1.96
2019-02-03T18:58:13.851Z,1.91
2019-02-03T19:00:43.024Z,1.99
2019-02-03T19:03:11.684Z,2.01
2019-02-03T19:05:44.417Z,1.89
2019-02-03T19:08:14.256Z,1.96
2019-02-03T19:10:43.096Z,1.96
2019-02-03T19:13:11.733Z,2.06
2019-02-03T19:15:40.898Z,1.92
2019-02-03T19:18:09.597Z,1.98
2019-02-03T19:20:43.081Z,1.96
2019-02-03T19:23:16.552Z,2.03
2019-02-03T19:25:45.331Z,2.04
2019-02-03T19:28:14.797Z,1.93
2019-02-03T19:30:44.091Z,1.98
2019-02-03T19:33:12.831Z,2.04
2019-02-03T19:35:41.734Z,2.03
2019-02-03T19:38:10.447Z,2.06
2019-02-03T19:40:39.086Z,2.02
2019-02-03T19:43:08.455Z,2.07
2019-02-03T19:45:37.843Z,2.11
2019-02-03T19:48:06.664Z,1.85
2019-02-03T19:50:40.639Z,1.94
2019-02-03T19:53:12.528Z,1.96
2019-02-03T19:55:41.545Z,2.00
2019-02-03T19:58:10.152Z,2.02
2019-02-03T20:00:41.230Z,2.11
2019-02-03T20:03:09.979Z,2.11
2019-02-03T20:05:38.984Z,2.10
2019-02-03T20:08:07.897Z,2.03
2019-02-03T20:10:37.900Z,2.04
2019-02-03T20:13:07.418Z,2.10
2019-02-03T20:15:36.389Z,2.06
2019-02-03T20:18:05.476Z,2.06
2019-02-03T20:20:37.413Z,2.06
2019-02-03T20:23:06.787Z,1.92
2019-02-03T20:25:36.590Z,1.94
2019-02-03T20:28:06.204Z,1.97
2019-02-03T20:30:38.592Z,1.96
2019-02-03T20:33:05.406Z,2.00
2019-02-03T20:35:34.309Z,1.93
2019-02-03T20:38:03.600Z,1.97
2019-02-03T20:40:43.798Z,2.00
2019-02-03T20:43:13.202Z,1.89
2019-02-03T20:45:49.265Z,1.93
2019-02-03T20:48:12.629Z,1.96
2019-02-03T20:50:41.723Z,1.98
2019-02-03T20:53:10.466Z,1.93
2019-02-03T20:55:39.451Z,1.92
2019-02-03T20:58:08.023Z,1.96
2019-02-03T21:00:37.789Z,1.92
2019-02-03T21:03:06.968Z,1.84
2019-02-03T21:05:35.878Z,1.81
2019-02-03T21:08:06.363Z,1.81
2019-02-03T21:10:34.927Z,1.72
2019-02-03T21:13:11.312Z,1.57
2019-02-03T21:15:37.276Z,1.59
2019-02-03T21:18:08.646Z,1.45
2019-02-03T21:20:37.640Z,1.67
2019-02-03T21:23:06.261Z,1.59
2019-02-03T21:25:35.272Z,1.60
2019-02-03T21:28:04.618Z,1.44
2019-02-03T21:30:35.405Z,1.50
2019-02-03T21:33:04.623Z,1.50
2019-02-03T21:35:33.476Z,1.46
2019-02-03T21:38:02.382Z,1.39
2019-02-03T21:40:32.263Z,1.39
2019-02-03T21:43:02.736Z,1.35
2019-02-03T21:45:31.361Z,1.36
2019-02-03T21:48:00.151Z,1.33
2019-02-03T21:50:30.843Z,1.35
2019-02-03T21:52:59.482Z,1.19
2019-02-03T21:55:28.170Z,1.25
2019-02-03T21:57:56.791Z,1.13
2019-02-03T22:00:30.941Z,1.11
2019-02-03T22:02:59.687Z,1.15
2019-02-03T22:05:28.955Z,1.17
2019-02-03T22:07:58.354Z,1.07
2019-02-03T22:10:35.360Z,1.09
2019-02-03T22:13:04.473Z,1.06
2019-02-03T22:15:33.526Z,1.00
2019-02-03T22:18:02.126Z,1.00
2019-02-03T22:20:31.165Z,0.97
2019-02-03T22:22:59.733Z,0.89
2019-02-03T22:25:28.247Z,0.84
2019-02-03T22:27:56.824Z,0.91
2019-02-03T22:30:30.981Z,0.88
2019-02-03T22:32:59.857Z,0.91
2019-02-03T22:35:28.523Z,0.87
2019-02-03T22:37:57.084Z,0.91
2019-02-03T22:40:26.342Z,0.92
2019-02-03T22:42:54.942Z,0.92
2019-02-03T22:45:24.927Z,0.82
2019-02-03T22:47:55.262Z,0.76
2019-02-03T22:50:26.824Z,0.72
2019-02-03T22:52:56.080Z,0.77
2019-02-03T22:55:25.011Z,0.77
2019-02-03T22:57:53.643Z,0.74
2019-02-03T23:00:51.798Z,0.74
2019-02-03T23:03:26.019Z,0.69
2019-02-03T23:05:54.880Z,0.68
2019-02-03T23:08:23.391Z,0.60
2019-02-03T23:10:51.928Z,0.65
2019-02-03T23:13:20.520Z,0.57
2019-02-03T23:15:49.638Z,0.58
2019-02-03T23:18:18.181Z,0.52
2019-02-03T23:20:46.760Z,0.49
2019-02-03T23:23:15.354Z,0.16
2019-02-03T23:25:43.931Z,0.23
2019-02-03T23:28:13.391Z,0.39
2019-02-03T23:30:42.160Z,0.29
2019-02-03T23:33:10.680Z,0.21
2019-02-03T23:35:39.255Z,0.25
2019-02-03T23:38:07.783Z,0.03
2019-02-03T23:40:36.433Z,-0.08
2019-02-03T23:43:05.250Z,0.08
2019-02-03T23:45:34.296Z,0.11
2019-02-03T23:48:03.253Z,0.20
2019-02-03T23:50:31.858Z,0.18
2019-02-03T23:53:00.393Z,0.03
2019-02-03T23:55:29.028Z,0.15
2019-02-03T23:57:57.591Z,0.06
